Boston, Massachusetts
Current Conditions -  °F | °C
As of 3:54 PM on Saturday 20 Dec 2014 (Local Time) from KBOS Reporting Station
Overcast Overcast  
Wind Chill: -3°   Ceiling: 2100
Heat Index:   Visibility: 10mi
Dew Point: -4°   Wind: 10mph
Humidity: 70%   Direction: 340°NNW
Pressure: 30.28"   Gusts: NA
Location:  42.36°N, 71.06°W
Report Text: KBOS 202054Z 34009KT 10SM OVC021 01/M04 A3028 RMK AO2 SLP252 SHSN VC SE-SW T00111039 53004
Loading
Personal Weather Stations






























Interactive Weather Map New forecast layout! Learn more

10-Day Weather Forecast

Advertisements
Track Severe Weather on mobile